Terminal Aerodrome Forecast
Issued by NWS

Home | Current Version | Previous Version | Graphics & Text | Print | Product List | Glossary On
Versions: 1 2 3 4 5 6 7 8 9 10 11 12 13 14 15 16 17 18 19 20 21 22 23 24 25 26 27
000
FTUS41 KCLE 232300
TAFFDY
TAF
KFDY 232329Z 2400/2424 VRB03KT P6SM BKN200
      TEMPO 2412/2414 4SM BR
     FM241500 24005KT P6SM SCT045 BKN150
     FM241800 25006KT P6SM BKN045 OVC100=

USA.gov is the U.S. government's official web portal to all federal, state and local government web resources and services.